logo
Search for airport 
image banner adimage banner adimage banner ad
image banner ad

ED0260 - Marpingen

Located in , Germany

ICAO - , IATA -

Data provided by Airmate  

General information

Coordinates: N49°27'11" E7°2'21"
Elevation is 1181 feet MSL.
 
View others Airports in Saarland

Operational data

Special qualification required
Current time UTC:
Current local time:
Weather at : EDDR - Saarbruecken ( 27 km )
METAR: EDDR 241120Z AUTO VRB05KT 9999 BKN027 BKN034 20/13 Q1021 NOSIG
TAF: TAF EDDR 241100Z 2412/2512 29006KT 9999 SCT035 BECMG 2418/2420 VRB03KT
View NOTAMs / SUP AIP / TFR affecting this airport [VIEW]
Communications frequencies: [VIEW]

Runways:

Airport contact information

Address: Germany

Satellite view of ED0260